Ashford, United Kingdom
Current Conditions -  °F | °C
As of 8:20 AM on Monday 22 Dec 2014 (Local Time) from EGMD Reporting Station
Light Rain Light Rain  
Wind Chill: 54°   Ceiling: 1100
Heat Index: 54°   Visibility: 2.5mi
Dew Point: 54°   Wind: 28mph
Humidity: 100%   Direction: 240°WSW
Pressure: 30.12"   Gusts: NA
Location:  51.15°N, 0.87°E
Report Text: EGMD 220820Z 24024KT 4000 -RADZ SCT004 BKN011 12/12 Q1020
Loading
Personal Weather Stations






























Interactive Weather Map New forecast layout! Learn more

10-Day Weather Forecast

Advertisements
Track Severe Weather on mobile